Terminal Aerodrome Forecast
Issued by NWS St Louis, MO

Home | Current Version | Previous Version | Text Only | Print | Product List | Glossary On
Versions: 1 2 3 4 5 6 7 8 9 10 11 12 13 14 15 16 17 18 19 20 21 22 23 24 25 26 27 28
000
FTUS43 KLSX 022323
TAFCOU
TAF
KCOU 022323Z 0300/0324 03008KT P6SM SCT025 OVC150
     FM030500 04005KT 5SM BR FEW015 BKN100
     FM030900 03005KT 2SM BR OVC012
     FM031600 05005KT P6SM SCT025 BKN120=

USA.gov is the U.S. government's official web portal to all federal, state and local government web resources and services.